Airfield :
LOGIN :

Register | Disclaimer

   EN    FR    IT 

 










Legend :    VFR   Marginal VFR   IFR   Intensive IFR   Very Intensive IFR
Visi :
Ceiling :
>= 8 km
>= 3000ft
5 to 8 km
1000 to 3000 ft
1500m to 5 km
500 to 1000 ft
800 to 1500m
200 to 500 ft
< 800m
< 200 ft
Symbols :   Thunderstorms  Fog  Heavy snow  Heavy precipitations  Wind > 20 kt
SIGMETs :     Misc.  Thunderstorms  Icing  Turbulence  Mountain Waves  Volcanic Ashes







- Airport Elevation : 375 ft
- IATA code : MST


EHBK - Maastricht Aachen

CURRENT METAR :
  • 172355Z AUTO VRB01KT 9999 NSC 14/11 Q1022

EXPIRED METARs :
  • 172325Z AUTO 33001KT 9999 NSC 14/11 Q1021
  • 172255Z AUTO 35001KT 9999 NSC 16/11 Q1021
  • 172225Z AUTO 36003KT 9999 NSC 16/12 Q1021
  • 172155Z AUTO 34002KT 9999 NSC 16/12 Q1021
  • 172125Z AUTO 34003KT 310V010 9999 NSC 16/12 Q1021

TAF TAF EHBK
Valid from the 18 at 00:00 until the 19 at 06:00 UTC


172307Z 1800/1906 22004KT CAVOK
BECMG 1809/1812 25010KT
BECMG 1818/1821 22004KT
No reported NOTAMs for that airfield.



MET'MAP, your aeronautical weather chart ! - Copyright ORBIFLY December 2007 - Disclaimer

ORBIFLY MET'MAP TEAM :

Programming & Development : Alexandra Zaïnal
Concept & Development : Baudouin d'Aumeries
Co-Development & Prog : Marc-Olivier Méhu
Technical & hardware support : Manuel Goepfert

Contact : metmap@orbifly.com




SOURCES & CREDITS :

   NOAA